sensor_id;sensor_type;location;lat;lon;timestamp;P1;durP1;ratioP1;P2;durP2;ratioP2
26953;SDS011;14508;50.924;11.600;2022-10-16T00:01:05;0.63;;;0.52;;
26953;SDS011;14508;50.924;11.600;2022-10-16T00:03:32;0.45;;;0.40;;
26953;SDS011;14508;50.924;11.600;2022-10-16T00:06:00;1.20;;;0.60;;
26953;SDS011;14508;50.924;11.600;2022-10-16T00:08:27;3.10;;;0.55;;
26953;SDS011;14508;50.924;11.600;2022-10-16T00:10:58;0.52;;;0.40;;
26953;SDS011;14508;50.924;11.600;2022-10-16T00:13:26;0.55;;;0.43;;
26953;SDS011;14508;50.924;11.600;2022-10-16T00:15:54;1.40;;;0.70;;
26953;SDS011;14508;50.924;11.600;2022-10-16T00:18:23;0.38;;;0.30;;
26953;SDS011;14508;50.924;11.600;2022-10-16T00:20:50;3.97;;;0.40;;
26953;SDS011;14508;50.924;11.600;2022-10-16T00:23:18;0.90;;;0.35;;
26953;SDS011;14508;50.924;11.600;2022-10-16T00:25:45;1.38;;;0.73;;
26953;SDS011;14508;50.924;11.600;2022-10-16T00:28:20;1.27;;;0.65;;
26953;SDS011;14508;50.924;11.600;2022-10-16T00:30:47;0.60;;;0.38;;
26953;SDS011;14508;50.924;11.600;2022-10-16T00:33:13;0.85;;;0.50;;
26953;SDS011;14508;50.924;11.600;2022-10-16T00:35:42;1.13;;;0.50;;
26953;SDS011;14508;50.924;11.600;2022-10-16T00:38:08;1.02;;;0.30;;
26953;SDS011;14508;50.924;11.600;2022-10-16T00:40:35;2.20;;;0.50;;
26953;SDS011;14508;50.924;11.600;2022-10-16T00:43:02;3.40;;;0.50;;
26953;SDS011;14508;50.924;11.600;2022-10-16T00:45:35;1.83;;;0.52;;
26953;SDS011;14508;50.924;11.600;2022-10-16T00:48:02;0.50;;;0.50;;
26953;SDS011;14508;50.924;11.600;2022-10-16T00:50:30;0.80;;;0.40;;
26953;SDS011;14508;50.924;11.600;2022-10-16T00:52:59;0.40;;;0.40;;
26953;SDS011;14508;50.924;11.600;2022-10-16T00:55:27;1.15;;;0.63;;
26953;SDS011;14508;50.924;11.600;2022-10-16T00:57:55;0.70;;;0.60;;
26953;SDS011;14508;50.924;11.600;2022-10-16T01:00:24;1.33;;;0.50;;
26953;SDS011;14508;50.924;11.600;2022-10-16T01:02:53;2.35;;;0.60;;
26953;SDS011;14508;50.924;11.600;2022-10-16T01:05:21;2.85;;;0.77;;
26953;SDS011;14508;50.924;11.600;2022-10-16T01:07:51;4.55;;;0.70;;
26953;SDS011;14508;50.924;11.600;2022-10-16T01:10:27;0.98;;;0.60;;
26953;SDS011;14508;50.924;11.600;2022-10-16T01:13:02;0.60;;;0.57;;
26953;SDS011;14508;50.924;11.600;2022-10-16T01:15:33;0.50;;;0.50;;
26953;SDS011;14508;50.924;11.600;2022-10-16T01:18:04;1.83;;;0.52;;
26953;SDS011;14508;50.924;11.600;2022-10-16T01:20:37;0.50;;;0.50;;
26953;SDS011;14508;50.924;11.600;2022-10-16T01:23:15;3.13;;;0.68;;
26953;SDS011;14508;50.924;11.600;2022-10-16T01:29:03;2.00;;;0.45;;
26953;SDS011;14508;50.924;11.600;2022-10-16T01:31:35;4.22;;;0.68;;
26953;SDS011;14508;50.924;11.600;2022-10-16T01:34:06;1.95;;;0.60;;
26953;SDS011;14508;50.924;11.600;2022-10-16T01:36:41;1.73;;;0.70;;
26953;SDS011;14508;50.924;11.600;2022-10-16T01:39:13;12.50;;;0.98;;
26953;SDS011;14508;50.924;11.600;2022-10-16T01:41:43;2.25;;;0.80;;
26953;SDS011;14508;50.924;11.600;2022-10-16T01:44:16;0.77;;;0.60;;
26953;SDS011;14508;50.924;11.600;2022-10-16T01:46:46;2.25;;;0.80;;
26953;SDS011;14508;50.924;11.600;2022-10-16T01:49:16;1.05;;;0.70;;
26953;SDS011;14508;50.924;11.600;2022-10-16T01:51:45;1.48;;;1.05;;
26953;SDS011;14508;50.924;11.600;2022-10-16T01:54:14;1.25;;;0.70;;
26953;SDS011;14508;50.924;11.600;2022-10-16T01:56:44;1.27;;;0.90;;
26953;SDS011;14508;50.924;11.600;2022-10-16T01:59:13;0.50;;;0.50;;
26953;SDS011;14508;50.924;11.600;2022-10-16T02:01:46;0.77;;;0.70;;
26953;SDS011;14508;50.924;11.600;2022-10-16T02:04:17;2.08;;;0.60;;
26953;SDS011;14508;50.924;11.600;2022-10-16T02:06:48;3.38;;;0.80;;
26953;SDS011;14508;50.924;11.600;2022-10-16T02:09:14;1.55;;;0.70;;
26953;SDS011;14508;50.924;11.600;2022-10-16T02:11:42;3.72;;;1.10;;
26953;SDS011;14508;50.924;11.600;2022-10-16T02:14:09;1.58;;;0.80;;
26953;SDS011;14508;50.924;11.600;2022-10-16T02:16:38;1.15;;;1.00;;
26953;SDS011;14508;50.924;11.600;2022-10-16T02:19:06;1.83;;;1.08;;
26953;SDS011;14508;50.924;11.600;2022-10-16T02:21:35;1.80;;;1.08;;
26953;SDS011;14508;50.924;11.600;2022-10-16T02:24:08;5.57;;;1.67;;
26953;SDS011;14508;50.924;11.600;2022-10-16T02:26:44;1.35;;;0.88;;
26953;SDS011;14508;50.924;11.600;2022-10-16T02:29:20;2.13;;;1.17;;
26953;SDS011;14508;50.924;11.600;2022-10-16T02:31:53;2.65;;;1.65;;
26953;SDS011;14508;50.924;11.600;2022-10-16T02:34:24;1.52;;;0.88;;
26953;SDS011;14508;50.924;11.600;2022-10-16T02:36:53;1.52;;;1.42;;
26953;SDS011;14508;50.924;11.600;2022-10-16T02:39:20;3.53;;;1.02;;
26953;SDS011;14508;50.924;11.600;2022-10-16T02:41:48;1.15;;;1.05;;
26953;SDS011;14508;50.924;11.600;2022-10-16T02:44:15;2.88;;;1.10;;
26953;SDS011;14508;50.924;11.600;2022-10-16T02:46:42;2.40;;;1.13;;
26953;SDS011;14508;50.924;11.600;2022-10-16T02:49:10;2.72;;;1.42;;
26953;SDS011;14508;50.924;11.600;2022-10-16T02:51:37;1.60;;;1.08;;
26953;SDS011;14508;50.924;11.600;2022-10-16T02:54:03;1.90;;;0.80;;
26953;SDS011;14508;50.924;11.600;2022-10-16T02:56:30;3.53;;;0.80;;
26953;SDS011;14508;50.924;11.600;2022-10-16T02:58:57;2.28;;;1.10;;
26953;SDS011;14508;50.924;11.600;2022-10-16T03:01:24;3.95;;;1.02;;
26953;SDS011;14508;50.924;11.600;2022-10-16T03:03:51;3.90;;;1.00;;
26953;SDS011;14508;50.924;11.600;2022-10-16T03:06:19;1.50;;;0.90;;
26953;SDS011;14508;50.924;11.600;2022-10-16T03:08:46;3.15;;;0.80;;
26953;SDS011;14508;50.924;11.600;2022-10-16T03:11:13;1.92;;;1.00;;
26953;SDS011;14508;50.924;11.600;2022-10-16T03:13:40;6.38;;;1.27;;
26953;SDS011;14508;50.924;11.600;2022-10-16T03:16:07;3.28;;;1.63;;
26953;SDS011;14508;50.924;11.600;2022-10-16T03:18:34;1.40;;;1.10;;
26953;SDS011;14508;50.924;11.600;2022-10-16T03:21:01;2.10;;;0.93;;
26953;SDS011;14508;50.924;11.600;2022-10-16T03:23:29;3.33;;;0.80;;
26953;SDS011;14508;50.924;11.600;2022-10-16T03:25:56;3.83;;;0.80;;
26953;SDS011;14508;50.924;11.600;2022-10-16T03:28:23;1.50;;;1.15;;
26953;SDS011;14508;50.924;11.600;2022-10-16T03:30:49;1.23;;;1.10;;
26953;SDS011;14508;50.924;11.600;2022-10-16T03:33:16;1.38;;;1.10;;
26953;SDS011;14508;50.924;11.600;2022-10-16T03:35:50;2.35;;;1.10;;
26953;SDS011;14508;50.924;11.600;2022-10-16T03:38:17;1.20;;;1.10;;
26953;SDS011;14508;50.924;11.600;2022-10-16T03:40:46;1.38;;;1.13;;
26953;SDS011;14508;50.924;11.600;2022-10-16T03:43:13;3.92;;;1.00;;
26953;SDS011;14508;50.924;11.600;2022-10-16T03:45:40;1.17;;;0.93;;
26953;SDS011;14508;50.924;11.600;2022-10-16T03:48:07;2.83;;;1.05;;
26953;SDS011;14508;50.924;11.600;2022-10-16T03:50:34;1.88;;;0.73;;
26953;SDS011;14508;50.924;11.600;2022-10-16T03:53:01;3.88;;;1.25;;
26953;SDS011;14508;50.924;11.600;2022-10-16T03:55:27;2.03;;;1.02;;
26953;SDS011;14508;50.924;11.600;2022-10-16T03:57:56;2.88;;;1.40;;
26953;SDS011;14508;50.924;11.600;2022-10-16T04:00:22;6.70;;;1.30;;
26953;SDS011;14508;50.924;11.600;2022-10-16T04:02:49;2.33;;;1.10;;
26953;SDS011;14508;50.924;11.600;2022-10-16T04:05:16;3.20;;;1.30;;
26953;SDS011;14508;50.924;11.600;2022-10-16T04:07:43;2.03;;;1.10;;
26953;SDS011;14508;50.924;11.600;2022-10-16T04:10:10;1.35;;;1.00;;
26953;SDS011;14508;50.924;11.600;2022-10-16T04:12:37;5.65;;;0.90;;
26953;SDS011;14508;50.924;11.600;2022-10-16T04:15:05;2.10;;;1.25;;
26953;SDS011;14508;50.924;11.600;2022-10-16T04:17:32;2.60;;;1.70;;
26953;SDS011;14508;50.924;11.600;2022-10-16T04:19:59;3.13;;;1.10;;
26953;SDS011;14508;50.924;11.600;2022-10-16T04:22:26;3.28;;;1.20;;
26953;SDS011;14508;50.924;11.600;2022-10-16T04:24:53;4.60;;;1.25;;
26953;SDS011;14508;50.924;11.600;2022-10-16T04:27:20;1.65;;;1.10;;
26953;SDS011;14508;50.924;11.600;2022-10-16T04:29:47;11.80;;;1.48;;
26953;SDS011;14508;50.924;11.600;2022-10-16T04:32:15;3.03;;;1.02;;
26953;SDS011;14508;50.924;11.600;2022-10-16T04:34:42;1.00;;;1.00;;
26953;SDS011;14508;50.924;11.600;2022-10-16T04:37:08;2.40;;;1.10;;
26953;SDS011;14508;50.924;11.600;2022-10-16T04:39:35;1.65;;;1.50;;
26953;SDS011;14508;50.924;11.600;2022-10-16T04:42:02;4.07;;;1.10;;
26953;SDS011;14508;50.924;11.600;2022-10-16T04:44:29;2.95;;;1.33;;
26953;SDS011;14508;50.924;11.600;2022-10-16T04:46:56;3.60;;;1.40;;
26953;SDS011;14508;50.924;11.600;2022-10-16T04:49:24;1.33;;;1.13;;
26953;SDS011;14508;50.924;11.600;2022-10-16T04:51:51;4.45;;;1.38;;
26953;SDS011;14508;50.924;11.600;2022-10-16T04:54:18;3.28;;;1.27;;
26953;SDS011;14508;50.924;11.600;2022-10-16T04:56:44;2.92;;;1.88;;
26953;SDS011;14508;50.924;11.600;2022-10-16T04:59:13;3.60;;;1.65;;
26953;SDS011;14508;50.924;11.600;2022-10-16T05:01:40;6.25;;;2.35;;
26953;SDS011;14508;50.924;11.600;2022-10-16T05:04:07;5.07;;;2.80;;
26953;SDS011;14508;50.924;11.600;2022-10-16T05:06:35;4.43;;;1.65;;
26953;SDS011;14508;50.924;11.600;2022-10-16T05:09:03;3.92;;;1.48;;
26953;SDS011;14508;50.924;11.600;2022-10-16T05:11:30;5.38;;;1.42;;
26953;SDS011;14508;50.924;11.600;2022-10-16T05:13:57;2.85;;;1.30;;
26953;SDS011;14508;50.924;11.600;2022-10-16T05:16:24;12.63;;;1.20;;
26953;SDS011;14508;50.924;11.600;2022-10-16T05:18:52;3.80;;;1.92;;
26953;SDS011;14508;50.924;11.600;2022-10-16T05:21:19;2.80;;;1.63;;
26953;SDS011;14508;50.924;11.600;2022-10-16T05:23:47;7.18;;;1.60;;
26953;SDS011;14508;50.924;11.600;2022-10-16T05:26:14;5.65;;;1.50;;
26953;SDS011;14508;50.924;11.600;2022-10-16T05:28:41;2.17;;;1.50;;
26953;SDS011;14508;50.924;11.600;2022-10-16T05:31:08;3.75;;;1.48;;
26953;SDS011;14508;50.924;11.600;2022-10-16T05:33:36;4.18;;;1.30;;
26953;SDS011;14508;50.924;11.600;2022-10-16T05:36:03;1.90;;;1.40;;
26953;SDS011;14508;50.924;11.600;2022-10-16T05:38:32;3.17;;;1.88;;
26953;SDS011;14508;50.924;11.600;2022-10-16T05:41:00;5.10;;;1.63;;
26953;SDS011;14508;50.924;11.600;2022-10-16T05:43:28;3.78;;;1.85;;
26953;SDS011;14508;50.924;11.600;2022-10-16T05:45:55;4.00;;;1.30;;
26953;SDS011;14508;50.924;11.600;2022-10-16T05:48:22;5.95;;;1.40;;
26953;SDS011;14508;50.924;11.600;2022-10-16T05:50:55;1.88;;;1.50;;
26953;SDS011;14508;50.924;11.600;2022-10-16T05:53:23;1.63;;;1.52;;
26953;SDS011;14508;50.924;11.600;2022-10-16T05:55:53;4.60;;;1.60;;
26953;SDS011;14508;50.924;11.600;2022-10-16T05:58:22;2.33;;;1.48;;
26953;SDS011;14508;50.924;11.600;2022-10-16T06:00:53;2.47;;;1.40;;
26953;SDS011;14508;50.924;11.600;2022-10-16T06:03:21;7.28;;;1.58;;
26953;SDS011;14508;50.924;11.600;2022-10-16T06:05:48;2.72;;;1.83;;
26953;SDS011;14508;50.924;11.600;2022-10-16T06:08:15;1.80;;;1.20;;
26953;SDS011;14508;50.924;11.600;2022-10-16T06:10:43;3.33;;;1.17;;
26953;SDS011;14508;50.924;11.600;2022-10-16T06:13:10;1.77;;;1.00;;
26953;SDS011;14508;50.924;11.600;2022-10-16T06:15:39;2.35;;;1.17;;
26953;SDS011;14508;50.924;11.600;2022-10-16T06:18:06;2.35;;;1.38;;
26953;SDS011;14508;50.924;11.600;2022-10-16T06:20:34;4.35;;;1.30;;
26953;SDS011;14508;50.924;11.600;2022-10-16T06:23:00;1.50;;;0.95;;
26953;SDS011;14508;50.924;11.600;2022-10-16T06:25:29;6.38;;;1.83;;
26953;SDS011;14508;50.924;11.600;2022-10-16T06:27:56;1.33;;;1.10;;
26953;SDS011;14508;50.924;11.600;2022-10-16T06:30:23;2.08;;;1.00;;
26953;SDS011;14508;50.924;11.600;2022-10-16T06:32:51;1.38;;;1.00;;
26953;SDS011;14508;50.924;11.600;2022-10-16T06:35:18;0.98;;;0.65;;
26953;SDS011;14508;50.924;11.600;2022-10-16T06:37:45;0.68;;;0.60;;
26953;SDS011;14508;50.924;11.600;2022-10-16T06:40:12;3.80;;;0.80;;
26953;SDS011;14508;50.924;11.600;2022-10-16T06:42:40;6.53;;;1.73;;
26953;SDS011;14508;50.924;11.600;2022-10-16T06:45:07;0.55;;;0.55;;
26953;SDS011;14508;50.924;11.600;2022-10-16T06:47:34;3.03;;;1.00;;
26953;SDS011;14508;50.924;11.600;2022-10-16T06:50:02;2.25;;;0.90;;
26953;SDS011;14508;50.924;11.600;2022-10-16T06:52:31;1.90;;;1.08;;
26953;SDS011;14508;50.924;11.600;2022-10-16T06:54:58;1.58;;;1.05;;
26953;SDS011;14508;50.924;11.600;2022-10-16T06:57:25;1.10;;;0.50;;
26953;SDS011;14508;50.924;11.600;2022-10-16T06:59:52;1.00;;;0.40;;
26953;SDS011;14508;50.924;11.600;2022-10-16T07:02:19;1.02;;;0.57;;
26953;SDS011;14508;50.924;11.600;2022-10-16T07:04:46;0.52;;;0.52;;
26953;SDS011;14508;50.924;11.600;2022-10-16T07:07:14;0.70;;;0.45;;
26953;SDS011;14508;50.924;11.600;2022-10-16T07:09:41;0.57;;;0.40;;
26953;SDS011;14508;50.924;11.600;2022-10-16T07:12:08;0.73;;;0.50;;
26953;SDS011;14508;50.924;11.600;2022-10-16T07:14:35;4.25;;;0.73;;
26953;SDS011;14508;50.924;11.600;2022-10-16T07:17:02;0.75;;;0.30;;
26953;SDS011;14508;50.924;11.600;2022-10-16T07:19:29;0.40;;;0.40;;
26953;SDS011;14508;50.924;11.600;2022-10-16T07:21:55;0.68;;;0.40;;
26953;SDS011;14508;50.924;11.600;2022-10-16T07:24:24;0.30;;;0.30;;
26953;SDS011;14508;50.924;11.600;2022-10-16T07:26:51;1.15;;;0.57;;
26953;SDS011;14508;50.924;11.600;2022-10-16T07:29:19;1.40;;;0.50;;
26953;SDS011;14508;50.924;11.600;2022-10-16T07:31:47;0.73;;;0.50;;
26953;SDS011;14508;50.924;11.600;2022-10-16T07:34:15;0.43;;;0.32;;
26953;SDS011;14508;50.924;11.600;2022-10-16T07:36:43;1.20;;;0.30;;
26953;SDS011;14508;50.924;11.600;2022-10-16T07:39:13;0.32;;;0.30;;
26953;SDS011;14508;50.924;11.600;2022-10-16T07:41:41;2.58;;;0.40;;
26953;SDS011;14508;50.924;11.600;2022-10-16T07:44:08;4.68;;;0.40;;
26953;SDS011;14508;50.924;11.600;2022-10-16T07:46:35;1.70;;;0.57;;
26953;SDS011;14508;50.924;11.600;2022-10-16T07:49:02;0.70;;;0.45;;
26953;SDS011;14508;50.924;11.600;2022-10-16T07:51:29;0.38;;;0.38;;
26953;SDS011;14508;50.924;11.600;2022-10-16T07:53:55;2.30;;;0.50;;
26953;SDS011;14508;50.924;11.600;2022-10-16T07:56:22;0.52;;;0.40;;
26953;SDS011;14508;50.924;11.600;2022-10-16T07:58:51;0.30;;;0.30;;
26953;SDS011;14508;50.924;11.600;2022-10-16T08:01:18;2.80;;;0.50;;
26953;SDS011;14508;50.924;11.600;2022-10-16T08:03:47;0.30;;;0.28;;
26953;SDS011;14508;50.924;11.600;2022-10-16T08:06:14;1.23;;;0.50;;
26953;SDS011;14508;50.924;11.600;2022-10-16T08:08:42;0.50;;;0.40;;
26953;SDS011;14508;50.924;11.600;2022-10-16T08:11:09;1.05;;;0.50;;
26953;SDS011;14508;50.924;11.600;2022-10-16T08:13:36;0.65;;;0.57;;
26953;SDS011;14508;50.924;11.600;2022-10-16T08:16:05;1.55;;;0.98;;
26953;SDS011;14508;50.924;11.600;2022-10-16T08:18:33;0.40;;;0.40;;
26953;SDS011;14508;50.924;11.600;2022-10-16T08:21:01;2.30;;;0.65;;
26953;SDS011;14508;50.924;11.600;2022-10-16T08:23:29;0.80;;;0.55;;
26953;SDS011;14508;50.924;11.600;2022-10-16T08:26:01;0.50;;;0.50;;
26953;SDS011;14508;50.924;11.600;2022-10-16T08:28:29;1.90;;;0.60;;
26953;SDS011;14508;50.924;11.600;2022-10-16T08:30:56;1.13;;;0.60;;
26953;SDS011;14508;50.924;11.600;2022-10-16T08:33:31;1.30;;;0.70;;
26953;SDS011;14508;50.924;11.600;2022-10-16T08:35:59;0.57;;;0.55;;
26953;SDS011;14508;50.924;11.600;2022-10-16T08:38:26;0.73;;;0.63;;
26953;SDS011;14508;50.924;11.600;2022-10-16T08:40:53;0.90;;;0.80;;
26953;SDS011;14508;50.924;11.600;2022-10-16T08:43:43;0.82;;;0.60;;
26953;SDS011;14508;50.924;11.600;2022-10-16T08:46:30;1.00;;;0.80;;
26953;SDS011;14508;50.924;11.600;2022-10-16T08:49:07;1.05;;;0.73;;
26953;SDS011;14508;50.924;11.600;2022-10-16T08:51:38;1.90;;;0.93;;
26953;SDS011;14508;50.924;11.600;2022-10-16T08:54:21;3.00;;;1.02;;
26953;SDS011;14508;50.924;11.600;2022-10-16T08:56:54;1.48;;;0.93;;
26953;SDS011;14508;50.924;11.600;2022-10-16T08:59:21;3.45;;;1.40;;
26953;SDS011;14508;50.924;11.600;2022-10-16T09:01:49;2.47;;;1.30;;
26953;SDS011;14508;50.924;11.600;2022-10-16T09:04:30;1.73;;;1.35;;
26953;SDS011;14508;50.924;11.600;2022-10-16T09:07:22;1.10;;;1.00;;
26953;SDS011;14508;50.924;11.600;2022-10-16T09:12:52;2.05;;;1.35;;
26953;SDS011;14508;50.924;11.600;2022-10-16T09:15:25;1.27;;;0.98;;
26953;SDS011;14508;50.924;11.600;2022-10-16T09:17:56;2.30;;;1.15;;
26953;SDS011;14508;50.924;11.600;2022-10-16T09:23:17;4.18;;;1.10;;
26953;SDS011;14508;50.924;11.600;2022-10-16T09:25:46;1.27;;;0.80;;
26953;SDS011;14508;50.924;11.600;2022-10-16T09:28:14;2.85;;;1.35;;
26953;SDS011;14508;50.924;11.600;2022-10-16T09:30:42;1.75;;;1.33;;
26953;SDS011;14508;50.924;11.600;2022-10-16T09:33:09;1.70;;;1.20;;
26953;SDS011;14508;50.924;11.600;2022-10-16T09:35:38;1.70;;;1.10;;
26953;SDS011;14508;50.924;11.600;2022-10-16T09:38:08;5.07;;;1.20;;
26953;SDS011;14508;50.924;11.600;2022-10-16T09:40:46;6.40;;;1.10;;
26953;SDS011;14508;50.924;11.600;2022-10-16T09:43:19;1.23;;;1.00;;
26953;SDS011;14508;50.924;11.600;2022-10-16T09:45:55;1.10;;;1.00;;
26953;SDS011;14508;50.924;11.600;2022-10-16T09:48:25;2.83;;;1.15;;
26953;SDS011;14508;50.924;11.600;2022-10-16T09:50:55;1.42;;;1.10;;
26953;SDS011;14508;50.924;11.600;2022-10-16T09:53:38;1.40;;;0.93;;
26953;SDS011;14508;50.924;11.600;2022-10-16T09:56:09;1.45;;;0.95;;
26953;SDS011;14508;50.924;11.600;2022-10-16T09:58:41;8.55;;;1.02;;
26953;SDS011;14508;50.924;11.600;2022-10-16T10:01:11;4.32;;;0.95;;
26953;SDS011;14508;50.924;11.600;2022-10-16T10:03:40;1.52;;;1.00;;
26953;SDS011;14508;50.924;11.600;2022-10-16T10:06:15;1.15;;;0.93;;
26953;SDS011;14508;50.924;11.600;2022-10-16T10:09:00;3.55;;;1.00;;
26953;SDS011;14508;50.924;11.600;2022-10-16T10:11:37;3.45;;;0.93;;
26953;SDS011;14508;50.924;11.600;2022-10-16T10:14:05;0.73;;;0.70;;
26953;SDS011;14508;50.924;11.600;2022-10-16T10:16:32;1.95;;;0.88;;
26953;SDS011;14508;50.924;11.600;2022-10-16T10:18:59;1.65;;;1.10;;
26953;SDS011;14508;50.924;11.600;2022-10-16T10:21:26;3.67;;;1.52;;
26953;SDS011;14508;50.924;11.600;2022-10-16T10:23:56;1.02;;;0.93;;
26953;SDS011;14508;50.924;11.600;2022-10-16T10:26:26;1.90;;;0.70;;
26953;SDS011;14508;50.924;11.600;2022-10-16T10:28:57;1.45;;;0.82;;
26953;SDS011;14508;50.924;11.600;2022-10-16T10:31:31;0.60;;;0.60;;
26953;SDS011;14508;50.924;11.600;2022-10-16T10:34:06;1.42;;;0.82;;
26953;SDS011;14508;50.924;11.600;2022-10-16T10:36:46;2.30;;;0.68;;
26953;SDS011;14508;50.924;11.600;2022-10-16T10:39:20;0.52;;;0.52;;
26953;SDS011;14508;50.924;11.600;2022-10-16T10:44:50;0.90;;;0.80;;
26953;SDS011;14508;50.924;11.600;2022-10-16T10:47:30;0.77;;;0.68;;
26953;SDS011;14508;50.924;11.600;2022-10-16T10:50:07;2.70;;;0.77;;
26953;SDS011;14508;50.924;11.600;2022-10-16T10:52:47;3.42;;;0.80;;
26953;SDS011;14508;50.924;11.600;2022-10-16T10:55:20;0.93;;;0.57;;
26953;SDS011;14508;50.924;11.600;2022-10-16T10:57:59;2.50;;;0.70;;
26953;SDS011;14508;50.924;11.600;2022-10-16T11:00:47;5.15;;;0.77;;
26953;SDS011;14508;50.924;11.600;2022-10-16T11:06:26;1.25;;;1.15;;
26953;SDS011;14508;50.924;11.600;2022-10-16T11:08:59;4.13;;;1.00;;
26953;SDS011;14508;50.924;11.600;2022-10-16T11:11:34;0.60;;;0.60;;
26953;SDS011;14508;50.924;11.600;2022-10-16T11:14:08;0.63;;;0.63;;
26953;SDS011;14508;50.924;11.600;2022-10-16T11:16:42;0.63;;;0.60;;
26953;SDS011;14508;50.924;11.600;2022-10-16T11:19:14;3.40;;;0.80;;
26953;SDS011;14508;50.924;11.600;2022-10-16T11:22:04;2.85;;;0.70;;
26953;SDS011;14508;50.924;11.600;2022-10-16T11:24:40;1.15;;;0.80;;
26953;SDS011;14508;50.924;11.600;2022-10-16T11:27:14;0.52;;;0.50;;
26953;SDS011;14508;50.924;11.600;2022-10-16T11:29:45;0.65;;;0.65;;
26953;SDS011;14508;50.924;11.600;2022-10-16T11:32:19;0.80;;;0.73;;
26953;SDS011;14508;50.924;11.600;2022-10-16T11:34:50;3.30;;;0.70;;
26953;SDS011;14508;50.924;11.600;2022-10-16T11:37:20;1.60;;;1.00;;
26953;SDS011;14508;50.924;11.600;2022-10-16T11:39:54;1.88;;;0.60;;
26953;SDS011;14508;50.924;11.600;2022-10-16T11:42:26;1.95;;;0.80;;
26953;SDS011;14508;50.924;11.600;2022-10-16T11:45:03;2.55;;;0.63;;
26953;SDS011;14508;50.924;11.600;2022-10-16T11:47:40;4.80;;;0.90;;
26953;SDS011;14508;50.924;11.600;2022-10-16T11:50:13;0.88;;;0.60;;
26953;SDS011;14508;50.924;11.600;2022-10-16T11:52:51;0.70;;;0.65;;
26953;SDS011;14508;50.924;11.600;2022-10-16T11:55:22;0.95;;;0.73;;
26953;SDS011;14508;50.924;11.600;2022-10-16T11:57:57;0.60;;;0.57;;
26953;SDS011;14508;50.924;11.600;2022-10-16T12:00:30;0.57;;;0.57;;
26953;SDS011;14508;50.924;11.600;2022-10-16T12:03:03;0.50;;;0.40;;
26953;SDS011;14508;50.924;11.600;2022-10-16T12:05:42;1.67;;;0.70;;
26953;SDS011;14508;50.924;11.600;2022-10-16T12:08:21;0.82;;;0.70;;
26953;SDS011;14508;50.924;11.600;2022-10-16T12:10:48;0.50;;;0.50;;
26953;SDS011;14508;50.924;11.600;2022-10-16T12:13:28;0.82;;;0.50;;
26953;SDS011;14508;50.924;11.600;2022-10-16T12:16:05;0.65;;;0.55;;
26953;SDS011;14508;50.924;11.600;2022-10-16T12:18:33;0.93;;;0.50;;
26953;SDS011;14508;50.924;11.600;2022-10-16T12:21:00;4.55;;;1.17;;
26953;SDS011;14508;50.924;11.600;2022-10-16T12:23:31;1.58;;;0.65;;
26953;SDS011;14508;50.924;11.600;2022-10-16T12:25:59;3.13;;;0.60;;
26953;SDS011;14508;50.924;11.600;2022-10-16T12:28:28;1.73;;;0.57;;
26953;SDS011;14508;50.924;11.600;2022-10-16T12:30:57;0.38;;;0.38;;
26953;SDS011;14508;50.924;11.600;2022-10-16T12:33:29;1.15;;;0.70;;
26953;SDS011;14508;50.924;11.600;2022-10-16T12:35:58;1.92;;;0.50;;
26953;SDS011;14508;50.924;11.600;2022-10-16T12:38:27;2.50;;;0.50;;
26953;SDS011;14508;50.924;11.600;2022-10-16T12:40:58;0.80;;;0.43;;
26953;SDS011;14508;50.924;11.600;2022-10-16T12:43:34;0.98;;;0.50;;
26953;SDS011;14508;50.924;11.600;2022-10-16T12:46:04;1.20;;;0.50;;
26953;SDS011;14508;50.924;11.600;2022-10-16T12:48:48;0.77;;;0.40;;
26953;SDS011;14508;50.924;11.600;2022-10-16T12:51:21;0.70;;;0.60;;
26953;SDS011;14508;50.924;11.600;2022-10-16T12:53:57;0.40;;;0.40;;
26953;SDS011;14508;50.924;11.600;2022-10-16T12:56:27;0.57;;;0.57;;
26953;SDS011;14508;50.924;11.600;2022-10-16T12:59:06;3.80;;;0.80;;
26953;SDS011;14508;50.924;11.600;2022-10-16T13:01:42;0.70;;;0.60;;
26953;SDS011;14508;50.924;11.600;2022-10-16T13:04:31;0.50;;;0.40;;
26953;SDS011;14508;50.924;11.600;2022-10-16T13:07:15;3.35;;;0.77;;
26953;SDS011;14508;50.924;11.600;2022-10-16T13:12:30;0.75;;;0.60;;
26953;SDS011;14508;50.924;11.600;2022-10-16T13:15:16;1.58;;;0.70;;
26953;SDS011;14508;50.924;11.600;2022-10-16T13:17:54;0.60;;;0.60;;
26953;SDS011;14508;50.924;11.600;2022-10-16T13:20:32;0.75;;;0.40;;
26953;SDS011;14508;50.924;11.600;2022-10-16T13:23:08;2.20;;;0.63;;
26953;SDS011;14508;50.924;11.600;2022-10-16T13:25:45;1.45;;;0.55;;
26953;SDS011;14508;50.924;11.600;2022-10-16T13:28:27;0.55;;;0.30;;
26953;SDS011;14508;50.924;11.600;2022-10-16T13:30:56;1.17;;;0.50;;
26953;SDS011;14508;50.924;11.600;2022-10-16T13:33:26;0.40;;;0.40;;
26953;SDS011;14508;50.924;11.600;2022-10-16T13:36:00;2.95;;;0.60;;
26953;SDS011;14508;50.924;11.600;2022-10-16T13:38:29;0.50;;;0.50;;
26953;SDS011;14508;50.924;11.600;2022-10-16T13:40:58;1.20;;;0.40;;
26953;SDS011;14508;50.924;11.600;2022-10-16T13:43:28;3.50;;;0.50;;
26953;SDS011;14508;50.924;11.600;2022-10-16T13:45:59;0.82;;;0.30;;
26953;SDS011;14508;50.924;11.600;2022-10-16T13:48:28;0.45;;;0.30;;
26953;SDS011;14508;50.924;11.600;2022-10-16T13:51:04;4.95;;;0.65;;
26953;SDS011;14508;50.924;11.600;2022-10-16T13:53:33;0.95;;;0.43;;
26953;SDS011;14508;50.924;11.600;2022-10-16T13:56:02;2.53;;;0.43;;
26953;SDS011;14508;50.924;11.600;2022-10-16T13:58:30;0.68;;;0.40;;
26953;SDS011;14508;50.924;11.600;2022-10-16T14:00:59;1.58;;;0.40;;
26953;SDS011;14508;50.924;11.600;2022-10-16T14:03:27;1.65;;;0.50;;
26953;SDS011;14508;50.924;11.600;2022-10-16T14:05:56;1.98;;;0.55;;
26953;SDS011;14508;50.924;11.600;2022-10-16T14:08:28;0.40;;;0.40;;
26953;SDS011;14508;50.924;11.600;2022-10-16T14:10:57;0.70;;;0.52;;
26953;SDS011;14508;50.924;11.600;2022-10-16T14:13:28;1.05;;;0.40;;
26953;SDS011;14508;50.924;11.600;2022-10-16T14:15:57;0.70;;;0.45;;
26953;SDS011;14508;50.924;11.600;2022-10-16T14:18:29;0.30;;;0.30;;
26953;SDS011;14508;50.924;11.600;2022-10-16T14:21:02;1.05;;;0.35;;
26953;SDS011;14508;50.924;11.600;2022-10-16T14:23:32;4.07;;;0.45;;
26953;SDS011;14508;50.924;11.600;2022-10-16T14:26:06;0.52;;;0.50;;
26953;SDS011;14508;50.924;11.600;2022-10-16T14:28:44;1.25;;;0.50;;
26953;SDS011;14508;50.924;11.600;2022-10-16T14:31:25;0.63;;;0.50;;
26953;SDS011;14508;50.924;11.600;2022-10-16T14:33:54;0.90;;;0.63;;
26953;SDS011;14508;50.924;11.600;2022-10-16T14:36:21;1.45;;;0.68;;
26953;SDS011;14508;50.924;11.600;2022-10-16T14:38:52;0.38;;;0.38;;
26953;SDS011;14508;50.924;11.600;2022-10-16T14:41:25;1.17;;;0.43;;
26953;SDS011;14508;50.924;11.600;2022-10-16T14:43:53;0.65;;;0.55;;
26953;SDS011;14508;50.924;11.600;2022-10-16T14:46:22;1.77;;;0.30;;
26953;SDS011;14508;50.924;11.600;2022-10-16T14:48:59;0.47;;;0.30;;
26953;SDS011;14508;50.924;11.600;2022-10-16T14:51:28;1.35;;;0.88;;
26953;SDS011;14508;50.924;11.600;2022-10-16T14:53:57;0.90;;;0.50;;
26953;SDS011;14508;50.924;11.600;2022-10-16T14:56:24;1.40;;;0.50;;
26953;SDS011;14508;50.924;11.600;2022-10-16T14:58:53;2.65;;;0.90;;
26953;SDS011;14508;50.924;11.600;2022-10-16T15:01:22;3.72;;;0.60;;
26953;SDS011;14508;50.924;11.600;2022-10-16T15:03:48;2.22;;;0.70;;
26953;SDS011;14508;50.924;11.600;2022-10-16T15:06:17;0.90;;;0.70;;
26953;SDS011;14508;50.924;11.600;2022-10-16T15:08:44;2.22;;;0.90;;